sensor_id;sensor_type;location;lat;lon;timestamp;temperature;humidity
68813;DHT22;55808;48.112;11.552;2022-08-23T00:01:42;14.30;99.90
68813;DHT22;55808;48.112;11.552;2022-08-23T00:04:14;14.20;99.90
68813;DHT22;55808;48.112;11.552;2022-08-23T00:06:41;14.20;99.90
68813;DHT22;55808;48.112;11.552;2022-08-23T00:09:08;14.20;99.90
68813;DHT22;55808;48.112;11.552;2022-08-23T00:11:41;14.20;99.90
68813;DHT22;55808;48.112;11.552;2022-08-23T00:14:10;14.10;99.90
68813;DHT22;55808;48.112;11.552;2022-08-23T00:16:37;14.00;99.90
68813;DHT22;55808;48.112;11.552;2022-08-23T00:19:04;14.00;99.90
68813;DHT22;55808;48.112;11.552;2022-08-23T00:21:32;14.00;99.90
68813;DHT22;55808;48.112;11.552;2022-08-23T00:23:57;13.90;99.90
68813;DHT22;55808;48.112;11.552;2022-08-23T00:26:23;13.90;99.90
68813;DHT22;55808;48.112;11.552;2022-08-23T00:28:49;13.90;99.90
68813;DHT22;55808;48.112;11.552;2022-08-23T00:31:19;13.80;99.90
68813;DHT22;55808;48.112;11.552;2022-08-23T00:33:44;13.80;99.90
68813;DHT22;55808;48.112;11.552;2022-08-23T00:36:10;13.80;99.90
68813;DHT22;55808;48.112;11.552;2022-08-23T00:38:36;13.80;99.90
68813;DHT22;55808;48.112;11.552;2022-08-23T00:41:02;13.80;99.90
68813;DHT22;55808;48.112;11.552;2022-08-23T00:43:33;13.80;99.90
68813;DHT22;55808;48.112;11.552;2022-08-23T00:46:42;13.70;99.90
68813;DHT22;55808;48.112;11.552;2022-08-23T00:49:28;13.70;99.90
68813;DHT22;55808;48.112;11.552;2022-08-23T00:54:34;13.50;99.90
68813;DHT22;55808;48.112;11.552;2022-08-23T00:57:04;13.60;99.90
68813;DHT22;55808;48.112;11.552;2022-08-23T00:59:31;13.60;99.90
68813;DHT22;55808;48.112;11.552;2022-08-23T01:01:59;13.60;99.90
68813;DHT22;55808;48.112;11.552;2022-08-23T01:04:30;13.70;99.90
68813;DHT22;55808;48.112;11.552;2022-08-23T01:07:06;13.60;99.90
68813;DHT22;55808;48.112;11.552;2022-08-23T01:09:35;13.70;99.90
68813;DHT22;55808;48.112;11.552;2022-08-23T01:12:20;13.60;99.90
68813;DHT22;55808;48.112;11.552;2022-08-23T01:15:01;13.60;99.90
68813;DHT22;55808;48.112;11.552;2022-08-23T01:17:34;13.50;99.90
68813;DHT22;55808;48.112;11.552;2022-08-23T01:20:05;13.50;99.90
68813;DHT22;55808;48.112;11.552;2022-08-23T01:25:06;13.50;99.90
68813;DHT22;55808;48.112;11.552;2022-08-23T01:27:33;13.50;99.90
68813;DHT22;55808;48.112;11.552;2022-08-23T01:29:58;13.50;99.90
68813;DHT22;55808;48.112;11.552;2022-08-23T01:32:24;13.50;99.90
68813;DHT22;55808;48.112;11.552;2022-08-23T01:34:50;13.50;99.90
68813;DHT22;55808;48.112;11.552;2022-08-23T01:37:19;13.50;99.90
68813;DHT22;55808;48.112;11.552;2022-08-23T01:39:45;13.50;99.90
68813;DHT22;55808;48.112;11.552;2022-08-23T01:42:11;13.60;99.90
68813;DHT22;55808;48.112;11.552;2022-08-23T01:44:37;13.60;99.90
68813;DHT22;55808;48.112;11.552;2022-08-23T01:47:03;13.50;99.90
68813;DHT22;55808;48.112;11.552;2022-08-23T01:49:29;13.40;99.90
68813;DHT22;55808;48.112;11.552;2022-08-23T01:51:54;13.30;99.90
68813;DHT22;55808;48.112;11.552;2022-08-23T01:54:20;13.30;99.90
68813;DHT22;55808;48.112;11.552;2022-08-23T01:56:46;13.30;99.90
68813;DHT22;55808;48.112;11.552;2022-08-23T01:59:12;13.30;99.90
68813;DHT22;55808;48.112;11.552;2022-08-23T02:01:38;13.40;99.90
68813;DHT22;55808;48.112;11.552;2022-08-23T02:04:04;13.50;99.90
68813;DHT22;55808;48.112;11.552;2022-08-23T02:06:30;13.50;99.90
68813;DHT22;55808;48.112;11.552;2022-08-23T02:08:56;13.40;99.90
68813;DHT22;55808;48.112;11.552;2022-08-23T02:11:37;13.40;99.90
68813;DHT22;55808;48.112;11.552;2022-08-23T02:14:07;13.40;99.90
68813;DHT22;55808;48.112;11.552;2022-08-23T02:16:38;13.40;99.90
68813;DHT22;55808;48.112;11.552;2022-08-23T02:19:07;13.30;99.90
68813;DHT22;55808;48.112;11.552;2022-08-23T02:21:34;13.30;99.90
68813;DHT22;55808;48.112;11.552;2022-08-23T02:24:14;13.40;99.90
68813;DHT22;55808;48.112;11.552;2022-08-23T02:26:44;13.40;99.90
68813;DHT22;55808;48.112;11.552;2022-08-23T02:29:11;13.40;99.90
68813;DHT22;55808;48.112;11.552;2022-08-23T02:31:37;13.40;99.90
68813;DHT22;55808;48.112;11.552;2022-08-23T02:34:04;13.40;99.90
68813;DHT22;55808;48.112;11.552;2022-08-23T02:36:30;13.40;99.90
68813;DHT22;55808;48.112;11.552;2022-08-23T02:38:56;13.40;99.90
68813;DHT22;55808;48.112;11.552;2022-08-23T02:41:22;13.40;99.90
68813;DHT22;55808;48.112;11.552;2022-08-23T02:43:51;13.30;99.90
68813;DHT22;55808;48.112;11.552;2022-08-23T02:46:17;13.30;99.90
68813;DHT22;55808;48.112;11.552;2022-08-23T02:48:43;13.40;99.90
68813;DHT22;55808;48.112;11.552;2022-08-23T02:51:09;13.40;99.90
68813;DHT22;55808;48.112;11.552;2022-08-23T02:53:35;13.40;99.90
68813;DHT22;55808;48.112;11.552;2022-08-23T02:56:02;13.30;99.90
68813;DHT22;55808;48.112;11.552;2022-08-23T02:58:28;13.30;99.90
68813;DHT22;55808;48.112;11.552;2022-08-23T03:00:53;13.20;99.90
68813;DHT22;55808;48.112;11.552;2022-08-23T03:03:20;13.10;99.90
68813;DHT22;55808;48.112;11.552;2022-08-23T03:05:46;13.00;99.90
68813;DHT22;55808;48.112;11.552;2022-08-23T03:08:12;12.90;99.90
68813;DHT22;55808;48.112;11.552;2022-08-23T03:10:42;13.00;99.90
68813;DHT22;55808;48.112;11.552;2022-08-23T03:13:08;13.00;99.90
68813;DHT22;55808;48.112;11.552;2022-08-23T03:15:34;13.00;99.90
68813;DHT22;55808;48.112;11.552;2022-08-23T03:18:00;12.90;99.90
68813;DHT22;55808;48.112;11.552;2022-08-23T03:20:26;13.00;99.90
68813;DHT22;55808;48.112;11.552;2022-08-23T03:22:52;13.00;99.90
68813;DHT22;55808;48.112;11.552;2022-08-23T03:25:18;12.80;99.90
68813;DHT22;55808;48.112;11.552;2022-08-23T03:27:44;12.60;99.90
68813;DHT22;55808;48.112;11.552;2022-08-23T03:30:10;12.70;99.90
68813;DHT22;55808;48.112;11.552;2022-08-23T03:32:35;12.80;99.90
68813;DHT22;55808;48.112;11.552;2022-08-23T03:35:02;12.90;99.90
68813;DHT22;55808;48.112;11.552;2022-08-23T03:37:27;12.90;99.90
68813;DHT22;55808;48.112;11.552;2022-08-23T03:39:53;12.90;99.90
68813;DHT22;55808;48.112;11.552;2022-08-23T03:42:19;12.90;99.90
68813;DHT22;55808;48.112;11.552;2022-08-23T03:44:45;12.70;99.90
68813;DHT22;55808;48.112;11.552;2022-08-23T03:47:10;12.70;99.90
68813;DHT22;55808;48.112;11.552;2022-08-23T03:49:37;12.80;99.90
68813;DHT22;55808;48.112;11.552;2022-08-23T03:52:04;12.70;99.90
68813;DHT22;55808;48.112;11.552;2022-08-23T03:54:30;12.60;99.90
68813;DHT22;55808;48.112;11.552;2022-08-23T03:57:04;12.50;99.90
68813;DHT22;55808;48.112;11.552;2022-08-23T03:59:31;12.40;99.90
68813;DHT22;55808;48.112;11.552;2022-08-23T04:01:58;12.50;99.90
68813;DHT22;55808;48.112;11.552;2022-08-23T04:04:24;12.60;99.90
68813;DHT22;55808;48.112;11.552;2022-08-23T04:06:49;12.60;99.90
68813;DHT22;55808;48.112;11.552;2022-08-23T04:09:15;12.50;99.90
68813;DHT22;55808;48.112;11.552;2022-08-23T04:11:42;12.40;99.90
68813;DHT22;55808;48.112;11.552;2022-08-23T04:14:08;12.60;99.90
68813;DHT22;55808;48.112;11.552;2022-08-23T04:16:35;12.60;99.90
68813;DHT22;55808;48.112;11.552;2022-08-23T04:19:10;12.60;99.90
68813;DHT22;55808;48.112;11.552;2022-08-23T04:21:43;12.60;99.90
68813;DHT22;55808;48.112;11.552;2022-08-23T04:24:09;12.60;99.90
68813;DHT22;55808;48.112;11.552;2022-08-23T04:26:36;12.50;99.90
68813;DHT22;55808;48.112;11.552;2022-08-23T04:29:02;12.50;99.90
68813;DHT22;55808;48.112;11.552;2022-08-23T04:31:28;12.40;99.90
68813;DHT22;55808;48.112;11.552;2022-08-23T04:33:54;12.40;99.90
68813;DHT22;55808;48.112;11.552;2022-08-23T04:36:23;12.40;99.90
68813;DHT22;55808;48.112;11.552;2022-08-23T04:38:49;12.50;99.90
68813;DHT22;55808;48.112;11.552;2022-08-23T04:41:15;12.50;99.90
68813;DHT22;55808;48.112;11.552;2022-08-23T04:44:00;12.70;99.90
68813;DHT22;55808;48.112;11.552;2022-08-23T04:46:26;12.50;99.90
68813;DHT22;55808;48.112;11.552;2022-08-23T04:48:51;12.40;99.90
68813;DHT22;55808;48.112;11.552;2022-08-23T04:51:18;12.40;99.90
68813;DHT22;55808;48.112;11.552;2022-08-23T04:53:44;12.40;99.90
68813;DHT22;55808;48.112;11.552;2022-08-23T04:56:10;12.30;99.90
68813;DHT22;55808;48.112;11.552;2022-08-23T04:58:36;12.30;99.90
68813;DHT22;55808;48.112;11.552;2022-08-23T05:01:06;12.40;99.90
68813;DHT22;55808;48.112;11.552;2022-08-23T05:03:35;12.30;99.90
68813;DHT22;55808;48.112;11.552;2022-08-23T05:06:02;12.40;99.90
68813;DHT22;55808;48.112;11.552;2022-08-23T05:08:30;12.30;99.90
68813;DHT22;55808;48.112;11.552;2022-08-23T05:10:59;12.30;99.90
68813;DHT22;55808;48.112;11.552;2022-08-23T05:13:25;12.30;99.90
68813;DHT22;55808;48.112;11.552;2022-08-23T05:15:51;12.30;99.90
68813;DHT22;55808;48.112;11.552;2022-08-23T05:18:17;12.30;99.90
68813;DHT22;55808;48.112;11.552;2022-08-23T05:20:43;12.40;99.90
68813;DHT22;55808;48.112;11.552;2022-08-23T05:23:08;12.50;99.90
68813;DHT22;55808;48.112;11.552;2022-08-23T05:25:34;12.40;99.90
68813;DHT22;55808;48.112;11.552;2022-08-23T05:28:24;12.50;99.90
68813;DHT22;55808;48.112;11.552;2022-08-23T05:30:56;12.60;99.90
68813;DHT22;55808;48.112;11.552;2022-08-23T05:33:22;12.60;99.90
68813;DHT22;55808;48.112;11.552;2022-08-23T05:35:49;12.60;99.90
68813;DHT22;55808;48.112;11.552;2022-08-23T05:38:14;12.60;99.90
68813;DHT22;55808;48.112;11.552;2022-08-23T05:40:40;12.60;99.90
68813;DHT22;55808;48.112;11.552;2022-08-23T05:43:06;12.60;99.90
68813;DHT22;55808;48.112;11.552;2022-08-23T05:45:31;12.70;99.90
68813;DHT22;55808;48.112;11.552;2022-08-23T05:47:57;12.80;99.90
68813;DHT22;55808;48.112;11.552;2022-08-23T05:50:22;12.90;99.90
68813;DHT22;55808;48.112;11.552;2022-08-23T05:52:48;13.10;99.90
68813;DHT22;55808;48.112;11.552;2022-08-23T05:55:14;13.00;99.90
68813;DHT22;55808;48.112;11.552;2022-08-23T05:57:40;13.10;99.90
68813;DHT22;55808;48.112;11.552;2022-08-23T06:00:07;13.10;99.90
68813;DHT22;55808;48.112;11.552;2022-08-23T06:02:36;13.20;99.90
68813;DHT22;55808;48.112;11.552;2022-08-23T06:05:02;13.20;99.90
68813;DHT22;55808;48.112;11.552;2022-08-23T06:07:28;13.20;99.90
68813;DHT22;55808;48.112;11.552;2022-08-23T06:09:55;13.40;99.90
68813;DHT22;55808;48.112;11.552;2022-08-23T06:12:21;13.40;99.90
68813;DHT22;55808;48.112;11.552;2022-08-23T06:14:46;13.40;99.90
68813;DHT22;55808;48.112;11.552;2022-08-23T06:17:12;13.50;99.90
68813;DHT22;55808;48.112;11.552;2022-08-23T06:19:37;13.50;99.90
68813;DHT22;55808;48.112;11.552;2022-08-23T06:22:03;13.50;99.90
68813;DHT22;55808;48.112;11.552;2022-08-23T06:24:29;13.50;99.90
68813;DHT22;55808;48.112;11.552;2022-08-23T06:26:55;13.70;99.90
68813;DHT22;55808;48.112;11.552;2022-08-23T06:29:21;13.90;99.90
68813;DHT22;55808;48.112;11.552;2022-08-23T06:31:49;14.00;99.90
68813;DHT22;55808;48.112;11.552;2022-08-23T06:34:27;14.10;99.90
68813;DHT22;55808;48.112;11.552;2022-08-23T06:37:03;14.10;99.90
68813;DHT22;55808;48.112;11.552;2022-08-23T06:39:30;14.10;99.90
68813;DHT22;55808;48.112;11.552;2022-08-23T06:41:58;14.20;99.90
68813;DHT22;55808;48.112;11.552;2022-08-23T06:44:26;14.30;99.90
68813;DHT22;55808;48.112;11.552;2022-08-23T06:46:52;14.40;99.90
68813;DHT22;55808;48.112;11.552;2022-08-23T06:49:20;14.40;99.90
68813;DHT22;55808;48.112;11.552;2022-08-23T06:51:49;14.50;99.90
68813;DHT22;55808;48.112;11.552;2022-08-23T06:54:18;14.60;99.90
68813;DHT22;55808;48.112;11.552;2022-08-23T06:56:45;14.60;99.90
68813;DHT22;55808;48.112;11.552;2022-08-23T06:59:12;14.70;99.90
68813;DHT22;55808;48.112;11.552;2022-08-23T07:01:44;14.80;99.90
68813;DHT22;55808;48.112;11.552;2022-08-23T07:04:13;15.00;99.90
68813;DHT22;55808;48.112;11.552;2022-08-23T07:06:39;15.00;99.90
68813;DHT22;55808;48.112;11.552;2022-08-23T07:09:06;15.10;99.90
68813;DHT22;55808;48.112;11.552;2022-08-23T07:11:32;15.20;99.90
68813;DHT22;55808;48.112;11.552;2022-08-23T07:13:59;15.20;99.90
68813;DHT22;55808;48.112;11.552;2022-08-23T07:16:30;15.20;99.90
68813;DHT22;55808;48.112;11.552;2022-08-23T07:18:56;15.30;99.90
68813;DHT22;55808;48.112;11.552;2022-08-23T07:21:22;15.40;99.90
68813;DHT22;55808;48.112;11.552;2022-08-23T07:23:48;15.50;99.90
68813;DHT22;55808;48.112;11.552;2022-08-23T07:26:15;15.60;99.90
68813;DHT22;55808;48.112;11.552;2022-08-23T07:28:41;15.60;99.90
68813;DHT22;55808;48.112;11.552;2022-08-23T07:31:11;15.70;99.90
68813;DHT22;55808;48.112;11.552;2022-08-23T07:33:37;15.70;99.90
68813;DHT22;55808;48.112;11.552;2022-08-23T07:36:04;15.70;99.90
68813;DHT22;55808;48.112;11.552;2022-08-23T07:38:30;15.80;99.90
68813;DHT22;55808;48.112;11.552;2022-08-23T07:40:56;15.80;99.90
68813;DHT22;55808;48.112;11.552;2022-08-23T07:43:23;16.00;99.90
68813;DHT22;55808;48.112;11.552;2022-08-23T07:45:49;16.10;99.90
68813;DHT22;55808;48.112;11.552;2022-08-23T07:48:14;16.10;99.90
68813;DHT22;55808;48.112;11.552;2022-08-23T07:50:40;16.20;99.90
68813;DHT22;55808;48.112;11.552;2022-08-23T07:53:07;16.40;99.90
68813;DHT22;55808;48.112;11.552;2022-08-23T07:55:33;16.40;99.90
68813;DHT22;55808;48.112;11.552;2022-08-23T07:57:59;16.50;99.90
68813;DHT22;55808;48.112;11.552;2022-08-23T08:00:26;16.60;98.80
68813;DHT22;55808;48.112;11.552;2022-08-23T08:02:52;16.50;98.40
68813;DHT22;55808;48.112;11.552;2022-08-23T08:05:17;16.50;96.90
68813;DHT22;55808;48.112;11.552;2022-08-23T08:07:43;16.60;98.10
68813;DHT22;55808;48.112;11.552;2022-08-23T08:10:09;16.60;97.30
68813;DHT22;55808;48.112;11.552;2022-08-23T08:12:36;16.70;96.80
68813;DHT22;55808;48.112;11.552;2022-08-23T08:15:01;16.90;95.70
68813;DHT22;55808;48.112;11.552;2022-08-23T08:17:27;16.70;98.70
68813;DHT22;55808;48.112;11.552;2022-08-23T08:19:52;16.60;98.10
68813;DHT22;55808;48.112;11.552;2022-08-23T08:22:18;16.80;96.60
68813;DHT22;55808;48.112;11.552;2022-08-23T08:24:44;17.10;96.60
68813;DHT22;55808;48.112;11.552;2022-08-23T08:27:10;17.00;96.90
68813;DHT22;55808;48.112;11.552;2022-08-23T08:29:35;17.10;96.60
68813;DHT22;55808;48.112;11.552;2022-08-23T08:32:02;17.30;95.10
68813;DHT22;55808;48.112;11.552;2022-08-23T08:34:28;17.30;94.40
68813;DHT22;55808;48.112;11.552;2022-08-23T08:36:55;17.20;95.10
68813;DHT22;55808;48.112;11.552;2022-08-23T08:39:26;17.30;95.20
68813;DHT22;55808;48.112;11.552;2022-08-23T08:42:14;17.30;93.70
68813;DHT22;55808;48.112;11.552;2022-08-23T08:44:52;17.40;95.10
68813;DHT22;55808;48.112;11.552;2022-08-23T08:50:13;17.70;93.70
68813;DHT22;55808;48.112;11.552;2022-08-23T08:52:48;17.50;94.50
68813;DHT22;55808;48.112;11.552;2022-08-23T08:55:37;17.60;93.10
68813;DHT22;55808;48.112;11.552;2022-08-23T08:58:06;17.70;92.90
68813;DHT22;55808;48.112;11.552;2022-08-23T09:00:37;17.90;94.20
68813;DHT22;55808;48.112;11.552;2022-08-23T09:03:12;17.70;93.50
68813;DHT22;55808;48.112;11.552;2022-08-23T09:05:52;17.80;94.30
68813;DHT22;55808;48.112;11.552;2022-08-23T09:16:51;18.50;90.30
68813;DHT22;55808;48.112;11.552;2022-08-23T09:19:19;18.60;93.70
68813;DHT22;55808;48.112;11.552;2022-08-23T09:21:57;18.30;93.50
68813;DHT22;55808;48.112;11.552;2022-08-23T09:24:24;18.30;90.30
68813;DHT22;55808;48.112;11.552;2022-08-23T09:26:50;18.50;87.60
68813;DHT22;55808;48.112;11.552;2022-08-23T09:29:24;18.80;85.00
68813;DHT22;55808;48.112;11.552;2022-08-23T09:31:56;18.80;87.50
68813;DHT22;55808;48.112;11.552;2022-08-23T09:37:15;19.10;82.30
68813;DHT22;55808;48.112;11.552;2022-08-23T09:39:44;19.00;84.80
68813;DHT22;55808;48.112;11.552;2022-08-23T09:44:54;19.00;83.10
68813;DHT22;55808;48.112;11.552;2022-08-23T09:47:33;19.00;84.70
68813;DHT22;55808;48.112;11.552;2022-08-23T09:50:38;19.30;81.90
68813;DHT22;55808;48.112;11.552;2022-08-23T09:53:09;19.30;82.00
68813;DHT22;55808;48.112;11.552;2022-08-23T09:55:48;19.50;82.80
68813;DHT22;55808;48.112;11.552;2022-08-23T09:58:42;19.40;86.10
68813;DHT22;55808;48.112;11.552;2022-08-23T10:01:23;19.50;78.40
68813;DHT22;55808;48.112;11.552;2022-08-23T10:04:11;19.50;79.70
68813;DHT22;55808;48.112;11.552;2022-08-23T10:06:39;19.80;73.00
68813;DHT22;55808;48.112;11.552;2022-08-23T10:09:08;19.90;77.10
68813;DHT22;55808;48.112;11.552;2022-08-23T10:11:45;20.00;77.40
68813;DHT22;55808;48.112;11.552;2022-08-23T10:14:16;20.10;74.20
68813;DHT22;55808;48.112;11.552;2022-08-23T10:17:03;19.90;73.60
68813;DHT22;55808;48.112;11.552;2022-08-23T10:22:54;20.20;74.10
68813;DHT22;55808;48.112;11.552;2022-08-23T10:25:34;20.40;73.20
68813;DHT22;55808;48.112;11.552;2022-08-23T10:34:40;21.00;72.20
68813;DHT22;55808;48.112;11.552;2022-08-23T10:37:33;21.20;72.00
68813;DHT22;55808;48.112;11.552;2022-08-23T10:40:15;21.00;71.30
68813;DHT22;55808;48.112;11.552;2022-08-23T10:45:39;21.60;72.30
68813;DHT22;55808;48.112;11.552;2022-08-23T10:51:18;22.90;66.10
68813;DHT22;55808;48.112;11.552;2022-08-23T10:53:56;23.20;66.70
68813;DHT22;55808;48.112;11.552;2022-08-23T10:56:25;26.30;59.20
68813;DHT22;55808;48.112;11.552;2022-08-23T11:01:24;29.20;54.60
68813;DHT22;55808;48.112;11.552;2022-08-23T11:04:02;29.40;49.80
68813;DHT22;55808;48.112;11.552;2022-08-23T11:06:50;29.70;48.30
68813;DHT22;55808;48.112;11.552;2022-08-23T11:11:47;30.50;44.80
68813;DHT22;55808;48.112;11.552;2022-08-23T11:14:36;29.90;47.80
68813;DHT22;55808;48.112;11.552;2022-08-23T11:17:06;31.20;43.60
68813;DHT22;55808;48.112;11.552;2022-08-23T11:19:56;30.80;43.20
68813;DHT22;55808;48.112;11.552;2022-08-23T11:22:28;29.10;43.80
68813;DHT22;55808;48.112;11.552;2022-08-23T11:25:05;29.50;41.70
68813;DHT22;55808;48.112;11.552;2022-08-23T11:31:15;28.30;43.30
68813;DHT22;55808;48.112;11.552;2022-08-23T11:36:22;28.80;43.00
68813;DHT22;55808;48.112;11.552;2022-08-23T11:41:26;28.10;42.80
68813;DHT22;55808;48.112;11.552;2022-08-23T12:16:11;29.40;41.70
68813;DHT22;55808;48.112;11.552;2022-08-23T12:23:49;28.50;41.30
68813;DHT22;55808;48.112;11.552;2022-08-23T12:29:30;27.80;42.80
68813;DHT22;55808;48.112;11.552;2022-08-23T12:37:34;28.00;43.50
68813;DHT22;55808;48.112;11.552;2022-08-23T12:40:07;28.70;39.80
68813;DHT22;55808;48.112;11.552;2022-08-23T12:42:37;28.80;45.20
68813;DHT22;55808;48.112;11.552;2022-08-23T12:45:19;28.70;42.00
68813;DHT22;55808;48.112;11.552;2022-08-23T12:47:59;28.60;41.60
68813;DHT22;55808;48.112;11.552;2022-08-23T12:50:40;29.30;42.90
68813;DHT22;55808;48.112;11.552;2022-08-23T12:53:15;29.00;43.20
68813;DHT22;55808;48.112;11.552;2022-08-23T12:55:47;29.30;41.00
68813;DHT22;55808;48.112;11.552;2022-08-23T12:58:15;29.10;41.40
68813;DHT22;55808;48.112;11.552;2022-08-23T13:00:54;29.60;43.40
68813;DHT22;55808;48.112;11.552;2022-08-23T13:06:04;29.20;44.00
68813;DHT22;55808;48.112;11.552;2022-08-23T13:08:47;29.30;44.70
68813;DHT22;55808;48.112;11.552;2022-08-23T13:11:18;28.90;41.60
68813;DHT22;55808;48.112;11.552;2022-08-23T13:13:46;28.40;41.80
68813;DHT22;55808;48.112;11.552;2022-08-23T13:24:57;28.30;43.50
68813;DHT22;55808;48.112;11.552;2022-08-23T13:27:27;28.00;44.90
68813;DHT22;55808;48.112;11.552;2022-08-23T13:33:40;28.20;44.70
68813;DHT22;55808;48.112;11.552;2022-08-23T13:35:39;28.40;45.70
68813;DHT22;55808;48.112;11.552;2022-08-23T13:41:03;29.10;45.90
68813;DHT22;55808;48.112;11.552;2022-08-23T13:46:09;28.30;44.20
68813;DHT22;55808;48.112;11.552;2022-08-23T13:48:36;28.50;45.10
68813;DHT22;55808;48.112;11.552;2022-08-23T13:53:52;28.70;43.10
68813;DHT22;55808;48.112;11.552;2022-08-23T13:56:19;28.80;45.30
68813;DHT22;55808;48.112;11.552;2022-08-23T14:01:41;27.10;46.90
68813;DHT22;55808;48.112;11.552;2022-08-23T14:04:06;26.80;45.00
68813;DHT22;55808;48.112;11.552;2022-08-23T14:06:32;26.60;46.50
68813;DHT22;55808;48.112;11.552;2022-08-23T14:08:59;26.90;46.10
68813;DHT22;55808;48.112;11.552;2022-08-23T14:11:24;26.10;45.90
68813;DHT22;55808;48.112;11.552;2022-08-23T14:13:50;25.60;48.20
68813;DHT22;55808;48.112;11.552;2022-08-23T14:16:23;25.50;48.80
68813;DHT22;55808;48.112;11.552;2022-08-23T14:18:49;25.60;48.30
68813;DHT22;55808;48.112;11.552;2022-08-23T14:21:15;25.90;48.20
68813;DHT22;55808;48.112;11.552;2022-08-23T14:23:40;25.60;47.70
68813;DHT22;55808;48.112;11.552;2022-08-23T14:26:07;25.90;46.20
68813;DHT22;55808;48.112;11.552;2022-08-23T14:28:33;25.90;46.20
68813;DHT22;55808;48.112;11.552;2022-08-23T14:30:59;26.30;46.60
68813;DHT22;55808;48.112;11.552;2022-08-23T14:33:24;26.60;46.30
68813;DHT22;55808;48.112;11.552;2022-08-23T14:35:50;26.60;44.80
68813;DHT22;55808;48.112;11.552;2022-08-23T14:38:16;26.80;47.00
68813;DHT22;55808;48.112;11.552;2022-08-23T14:40:51;26.50;45.70
68813;DHT22;55808;48.112;11.552;2022-08-23T14:43:18;26.40;44.80
68813;DHT22;55808;48.112;11.552;2022-08-23T14:45:45;26.60;44.40
68813;DHT22;55808;48.112;11.552;2022-08-23T14:48:10;26.30;44.80
68813;DHT22;55808;48.112;11.552;2022-08-23T14:50:36;26.10;45.90
68813;DHT22;55808;48.112;11.552;2022-08-23T14:53:04;26.10;43.70
68813;DHT22;55808;48.112;11.552;2022-08-23T14:55:30;26.70;46.00
68813;DHT22;55808;48.112;11.552;2022-08-23T14:57:56;26.90;43.60
68813;DHT22;55808;48.112;11.552;2022-08-23T15:00:22;26.40;44.40
68813;DHT22;55808;48.112;11.552;2022-08-23T15:02:48;26.50;42.20
68813;DHT22;55808;48.112;11.552;2022-08-23T15:05:14;26.90;45.80
68813;DHT22;55808;48.112;11.552;2022-08-23T15:07:40;26.50;44.00
68813;DHT22;55808;48.112;11.552;2022-08-23T15:10:07;26.10;44.40
68813;DHT22;55808;48.112;11.552;2022-08-23T15:12:34;26.20;45.50
68813;DHT22;55808;48.112;11.552;2022-08-23T15:15:01;26.10;43.30
68813;DHT22;55808;48.112;11.552;2022-08-23T15:17:27;26.50;43.60
68813;DHT22;55808;48.112;11.552;2022-08-23T15:19:52;26.60;44.60
68813;DHT22;55808;48.112;11.552;2022-08-23T15:22:18;26.60;44.90
68813;DHT22;55808;48.112;11.552;2022-08-23T15:24:44;26.50;45.20
68813;DHT22;55808;48.112;11.552;2022-08-23T15:27:09;26.40;40.90
68813;DHT22;55808;48.112;11.552;2022-08-23T15:29:35;26.40;43.50
68813;DHT22;55808;48.112;11.552;2022-08-23T15:32:01;26.30;44.50
68813;DHT22;55808;48.112;11.552;2022-08-23T15:34:26;26.40;44.70
68813;DHT22;55808;48.112;11.552;2022-08-23T15:36:52;26.60;44.10
68813;DHT22;55808;48.112;11.552;2022-08-23T15:39:18;26.50;42.30
68813;DHT22;55808;48.112;11.552;2022-08-23T15:41:43;26.70;44.50
68813;DHT22;55808;48.112;11.552;2022-08-23T15:44:09;26.70;43.70
68813;DHT22;55808;48.112;11.552;2022-08-23T15:46:36;26.60;44.10
68813;DHT22;55808;48.112;11.552;2022-08-23T15:49:21;26.40;47.40
68813;DHT22;55808;48.112;11.552;2022-08-23T15:51:47;26.70;51.20
68813;DHT22;55808;48.112;11.552;2022-08-23T15:54:13;26.30;44.00
68813;DHT22;55808;48.112;11.552;2022-08-23T15:56:47;26.20;44.70
68813;DHT22;55808;48.112;11.552;2022-08-23T15:59:16;25.90;44.10
68813;DHT22;55808;48.112;11.552;2022-08-23T16:01:43;25.80;44.70
68813;DHT22;55808;48.112;11.552;2022-08-23T16:04:10;25.60;43.90
68813;DHT22;55808;48.112;11.552;2022-08-23T16:06:37;25.60;46.80
68813;DHT22;55808;48.112;11.552;2022-08-23T16:09:05;25.60;42.80
68813;DHT22;55808;48.112;11.552;2022-08-23T16:11:31;25.60;43.00
68813;DHT22;55808;48.112;11.552;2022-08-23T16:13:57;25.60;46.20
68813;DHT22;55808;48.112;11.552;2022-08-23T16:16:30;25.60;43.00
68813;DHT22;55808;48.112;11.552;2022-08-23T16:18:58;25.70;43.90
68813;DHT22;55808;48.112;11.552;2022-08-23T16:21:26;25.40;43.20
68813;DHT22;55808;48.112;11.552;2022-08-23T16:23:53;25.30;42.70
68813;DHT22;55808;48.112;11.552;2022-08-23T16:26:22;25.30;43.60
68813;DHT22;55808;48.112;11.552;2022-08-23T16:28:50;25.60;44.30
68813;DHT22;55808;48.112;11.552;2022-08-23T16:31:16;25.70;43.80
68813;DHT22;55808;48.112;11.552;2022-08-23T16:33:44;25.40;45.60
68813;DHT22;55808;48.112;11.552;2022-08-23T16:36:12;25.30;45.50
68813;DHT22;55808;48.112;11.552;2022-08-23T16:38:38;25.40;45.70
68813;DHT22;55808;48.112;11.552;2022-08-23T16:41:04;25.60;46.40
68813;DHT22;55808;48.112;11.552;2022-08-23T16:43:29;25.70;48.40
68813;DHT22;55808;48.112;11.552;2022-08-23T16:45:55;25.70;46.30
68813;DHT22;55808;48.112;11.552;2022-08-23T16:48:21;25.60;46.60
68813;DHT22;55808;48.112;11.552;2022-08-23T16:50:46;25.60;49.50
68813;DHT22;55808;48.112;11.552;2022-08-23T16:53:13;25.60;48.50
68813;DHT22;55808;48.112;11.552;2022-08-23T16:55:39;25.50;49.80
68813;DHT22;55808;48.112;11.552;2022-08-23T16:58:06;25.30;47.30
68813;DHT22;55808;48.112;11.552;2022-08-23T17:00:32;25.30;48.10
68813;DHT22;55808;48.112;11.552;2022-08-23T17:02:58;25.20;49.50
68813;DHT22;55808;48.112;11.552;2022-08-23T17:05:24;25.10;47.80
68813;DHT22;55808;48.112;11.552;2022-08-23T17:07:50;25.10;47.20
68813;DHT22;55808;48.112;11.552;2022-08-23T17:10:18;25.00;48.90
68813;DHT22;55808;48.112;11.552;2022-08-23T17:12:47;24.80;50.10
68813;DHT22;55808;48.112;11.552;2022-08-23T17:15:17;24.90;49.60
68813;DHT22;55808;48.112;11.552;2022-08-23T17:17:42;24.70;49.20
68813;DHT22;55808;48.112;11.552;2022-08-23T17:20:10;24.50;48.30
68813;DHT22;55808;48.112;11.552;2022-08-23T17:22:36;24.40;49.90
68813;DHT22;55808;48.112;11.552;2022-08-23T17:25:03;24.30;50.10
68813;DHT22;55808;48.112;11.552;2022-08-23T17:27:29;24.40;50.70
68813;DHT22;55808;48.112;11.552;2022-08-23T17:29:54;24.30;49.40